createdAt,value
2019-02-06T00:00:56.618Z,13.07
2019-02-06T00:03:23.349Z,11.70
2019-02-06T00:05:50.219Z,12.60
2019-02-06T00:08:17.067Z,13.77
2019-02-06T00:10:43.784Z,12.80
2019-02-06T00:13:10.507Z,12.77
2019-02-06T00:15:37.366Z,11.47
2019-02-06T00:18:04.539Z,11.90
2019-02-06T00:20:32.107Z,13.77
2019-02-06T00:22:59.267Z,11.90
2019-02-06T00:25:26.101Z,12.40
2019-02-06T00:27:52.830Z,11.57
2019-02-06T00:32:54.264Z,11.43
2019-02-06T00:35:25.750Z,12.97
2019-02-06T00:37:50.041Z,12.27
2019-02-06T00:40:16.710Z,11.90
2019-02-06T00:42:43.465Z,12.63
2019-02-06T00:45:10.286Z,12.03
2019-02-06T00:47:37.128Z,12.23
2019-02-06T00:50:04.889Z,13.07
2019-02-06T00:52:32.308Z,13.00
2019-02-06T00:54:59.176Z,13.00
2019-02-06T00:57:25.903Z,12.70
2019-02-06T00:59:52.749Z,12.93
2019-02-06T01:02:19.458Z,12.37
2019-02-06T01:04:46.467Z,13.30
2019-02-06T01:07:13.666Z,13.77
2019-02-06T01:09:40.446Z,12.53
2019-02-06T01:12:09.167Z,13.23
2019-02-06T01:14:36.184Z,12.67
2019-02-06T01:17:03.066Z,11.60
2019-02-06T01:19:42.895Z,12.77
2019-02-06T01:22:09.733Z,11.87
2019-02-06T01:24:36.561Z,12.10
2019-02-06T01:27:03.572Z,12.97
2019-02-06T01:29:30.715Z,13.03
2019-02-06T01:31:57.438Z,12.27
2019-02-06T01:34:24.560Z,12.80
2019-02-06T01:36:51.409Z,12.50
2019-02-06T01:39:18.402Z,12.83
2019-02-06T01:41:45.115Z,13.03
2019-02-06T01:44:12.018Z,12.63
2019-02-06T01:46:39.118Z,12.37
2019-02-06T01:49:06.418Z,13.17
2019-02-06T01:51:33.107Z,13.07
2019-02-06T01:54:00.201Z,13.57
2019-02-06T01:56:27.186Z,13.70
2019-02-06T01:58:54.028Z,13.63
2019-02-06T02:01:20.871Z,13.80
2019-02-06T02:03:47.739Z,14.60
2019-02-06T02:06:14.527Z,14.00
2019-02-06T02:11:33.969Z,12.80
2019-02-06T02:14:00.797Z,13.93
2019-02-06T02:16:27.711Z,13.37
2019-02-06T02:18:54.790Z,15.07
2019-02-06T02:21:21.872Z,13.70
2019-02-06T02:23:48.591Z,13.40
2019-02-06T02:26:15.295Z,13.43
2019-02-06T02:28:42.005Z,14.90
2019-02-06T02:33:56.892Z,13.67
2019-02-06T02:36:23.623Z,14.30
2019-02-06T02:38:50.439Z,14.20
2019-02-06T02:41:17.242Z,13.00
2019-02-06T02:43:44.001Z,15.30
2019-02-06T02:46:10.619Z,14.63
2019-02-06T02:48:37.376Z,15.90
2019-02-06T02:51:04.101Z,15.77
2019-02-06T02:53:32.746Z,15.60
2019-02-06T02:55:59.590Z,15.47
2019-02-06T02:58:26.317Z,15.80
2019-02-06T03:01:12.837Z,15.50
2019-02-06T03:03:59.249Z,16.17
2019-02-06T03:06:28.552Z,16.57
2019-02-06T03:08:55.010Z,15.37
2019-02-06T03:11:21.838Z,15.60
2019-02-06T03:13:48.726Z,15.80
2019-02-06T03:16:15.560Z,15.87
2019-02-06T03:18:42.470Z,16.20
2019-02-06T03:21:09.379Z,17.37
2019-02-06T03:23:36.535Z,17.40
2019-02-06T03:26:03.355Z,16.37
2019-02-06T03:28:30.205Z,14.70
2019-02-06T03:30:56.936Z,16.17
2019-02-06T03:33:23.916Z,17.37
2019-02-06T03:35:50.856Z,17.53
2019-02-06T03:38:17.990Z,17.47
2019-02-06T03:40:44.810Z,17.87
2019-02-06T03:43:11.594Z,17.53
2019-02-06T03:45:38.419Z,17.33
2019-02-06T03:48:05.576Z,19.10
2019-02-06T03:50:32.512Z,18.77
2019-02-06T03:52:59.656Z,18.87
2019-02-06T03:55:26.430Z,18.77
2019-02-06T03:57:53.608Z,20.07
2019-02-06T04:00:20.759Z,21.33
2019-02-06T04:02:47.696Z,23.37
2019-02-06T04:05:14.610Z,23.60
2019-02-06T04:07:41.478Z,24.10
2019-02-06T04:10:09.714Z,25.43
2019-02-06T04:12:36.667Z,25.30
2019-02-06T04:15:44.543Z,26.73
2019-02-06T04:18:11.598Z,26.87
2019-02-06T04:20:38.322Z,25.90
2019-02-06T04:23:05.051Z,26.50
2019-02-06T04:25:32.540Z,26.33
2019-02-06T04:27:59.367Z,29.17
2019-02-06T04:30:26.099Z,28.67
2019-02-06T04:32:52.852Z,27.90
2019-02-06T04:35:19.563Z,27.53
2019-02-06T04:37:46.381Z,28.03
2019-02-06T04:40:15.752Z,28.27
2019-02-06T04:42:42.471Z,28.00
2019-02-06T04:45:09.563Z,29.97
2019-02-06T04:47:36.770Z,27.70
2019-02-06T04:50:04.946Z,28.37
2019-02-06T04:52:31.677Z,28.40
2019-02-06T04:54:58.453Z,28.30
2019-02-06T04:57:25.167Z,27.73
2019-02-06T04:59:52.019Z,31.73
2019-02-06T05:02:19.175Z,29.10
2019-02-06T05:04:45.888Z,28.20
2019-02-06T05:07:19.332Z,30.60
2019-02-06T05:09:41.677Z,30.43
2019-02-06T05:12:09.660Z,30.40
2019-02-06T05:14:37.093Z,31.10
2019-02-06T05:17:03.998Z,29.77
2019-02-06T05:19:30.825Z,29.97
2019-02-06T05:21:59.445Z,28.27
2019-02-06T05:24:26.323Z,27.70
2019-02-06T05:26:53.107Z,26.87
2019-02-06T05:29:20.108Z,27.93
2019-02-06T05:31:46.955Z,31.97
2019-02-06T05:34:14.500Z,32.27
2019-02-06T05:36:41.132Z,31.07
2019-02-06T05:39:08.045Z,32.27
2019-02-06T05:41:35.375Z,32.37
2019-02-06T05:44:02.096Z,31.27
2019-02-06T05:46:28.942Z,34.60
2019-02-06T05:48:55.568Z,33.40
2019-02-06T05:51:22.679Z,34.27
2019-02-06T05:53:49.431Z,32.73
2019-02-06T05:56:16.754Z,33.10
2019-02-06T05:58:43.747Z,35.43
2019-02-06T06:01:11.244Z,35.50
2019-02-06T06:03:37.972Z,34.80
2019-02-06T06:06:04.788Z,32.63
2019-02-06T06:08:31.787Z,32.53
2019-02-06T06:10:58.521Z,32.70
2019-02-06T06:13:25.352Z,31.60
2019-02-06T06:15:52.122Z,32.97
2019-02-06T06:18:21.931Z,33.87
2019-02-06T06:20:48.126Z,34.03
2019-02-06T06:23:15.091Z,33.60
2019-02-06T06:25:41.977Z,33.17
2019-02-06T06:28:08.766Z,33.17
2019-02-06T06:30:35.822Z,33.87
2019-02-06T06:33:02.940Z,34.90
2019-02-06T06:35:29.766Z,32.13
2019-02-06T06:38:02.425Z,34.37
2019-02-06T06:40:25.584Z,37.17
2019-02-06T06:42:52.413Z,35.40
2019-02-06T06:45:20.880Z,34.97
2019-02-06T06:47:47.739Z,35.93
2019-02-06T06:50:16.797Z,34.80
2019-02-06T06:52:43.880Z,36.60
2019-02-06T06:55:11.296Z,35.87
2019-02-06T06:57:38.718Z,36.67
2019-02-06T07:00:08.726Z,36.07
2019-02-06T07:02:36.015Z,37.27
2019-02-06T07:05:05.557Z,37.33
2019-02-06T07:07:32.234Z,35.63
2019-02-06T07:09:58.949Z,35.83
2019-02-06T07:12:25.709Z,36.80
2019-02-06T07:14:53.360Z,36.87
2019-02-06T07:17:20.419Z,36.00
2019-02-06T07:19:47.053Z,38.97
2019-02-06T07:22:14.232Z,37.67
2019-02-06T07:24:41.624Z,35.70
2019-02-06T07:27:08.509Z,39.07
2019-02-06T07:29:47.915Z,37.07
2019-02-06T07:32:14.888Z,37.87
2019-02-06T07:34:41.750Z,36.57
2019-02-06T07:37:08.710Z,36.67
2019-02-06T07:39:35.433Z,35.63
2019-02-06T07:42:02.203Z,34.53
2019-02-06T07:44:29.328Z,33.00
2019-02-06T07:46:56.213Z,33.70
2019-02-06T07:49:22.941Z,36.00
2019-02-06T07:51:50.928Z,33.47
2019-02-06T07:54:18.352Z,34.00
2019-02-06T07:56:45.306Z,31.17
2019-02-06T07:59:12.188Z,32.83
2019-02-06T08:01:39.347Z,31.67
2019-02-06T08:04:06.216Z,31.70
2019-02-06T08:06:33.007Z,30.90
2019-02-06T08:09:00.157Z,32.60
2019-02-06T08:11:27.153Z,32.70
2019-02-06T08:13:54.091Z,32.53
2019-02-06T08:16:20.813Z,30.10
2019-02-06T08:18:48.025Z,29.93
2019-02-06T08:21:14.922Z,30.87
2019-02-06T08:23:41.828Z,29.77
2019-02-06T08:26:08.653Z,29.77
2019-02-06T08:28:38.385Z,29.00
2019-02-06T08:31:05.630Z,29.80
2019-02-06T08:33:32.523Z,30.33
2019-02-06T08:35:59.545Z,29.87
2019-02-06T08:38:26.433Z,28.67
2019-02-06T08:40:53.876Z,28.57
2019-02-06T08:43:20.878Z,28.57
2019-02-06T08:45:47.852Z,28.03
2019-02-06T08:48:14.738Z,30.10
2019-02-06T08:50:41.674Z,29.93
2019-02-06T08:53:08.563Z,29.50
2019-02-06T08:55:35.336Z,29.67
2019-02-06T08:58:02.354Z,28.83
2019-02-06T09:00:31.291Z,28.30
2019-02-06T09:02:58.270Z,27.50
2019-02-06T09:05:27.162Z,26.50
2019-02-06T09:07:54.019Z,27.60
2019-02-06T09:10:21.892Z,27.60
2019-02-06T09:13:29.780Z,27.57
2019-02-06T09:15:56.817Z,26.27
2019-02-06T09:18:24.024Z,27.20
2019-02-06T09:20:52.820Z,27.00
2019-02-06T09:23:20.215Z,25.53
2019-02-06T09:25:47.503Z,24.70
2019-02-06T09:28:14.450Z,26.20
2019-02-06T09:30:41.190Z,24.50
2019-02-06T09:33:07.977Z,23.80
2019-02-06T09:35:34.991Z,25.00
2019-02-06T09:38:01.836Z,25.43
2019-02-06T09:40:29.481Z,25.03
2019-02-06T09:42:56.431Z,25.07
2019-02-06T09:46:04.484Z,25.27
2019-02-06T09:48:31.424Z,24.33
2019-02-06T09:50:58.531Z,23.47
2019-02-06T09:53:25.314Z,22.37
2019-02-06T09:55:53.361Z,22.53
2019-02-06T09:58:20.804Z,22.13
2019-02-06T10:00:47.625Z,21.87
2019-02-06T10:03:14.513Z,21.57
2019-02-06T10:05:41.521Z,20.80
2019-02-06T10:08:08.252Z,21.10
2019-02-06T10:10:35.067Z,21.23
2019-02-06T10:13:01.808Z,19.70
2019-02-06T10:15:33.481Z,20.63
2019-02-06T10:18:02.369Z,19.53
2019-02-06T10:20:34.562Z,20.07
2019-02-06T10:23:01.400Z,20.10
2019-02-06T10:25:28.478Z,19.70
2019-02-06T10:27:55.603Z,20.80
2019-02-06T10:30:27.863Z,19.77
2019-02-06T10:32:55.146Z,18.97
2019-02-06T10:35:22.052Z,19.00
2019-02-06T10:40:43.965Z,19.63
2019-02-06T10:43:10.703Z,17.67
2019-02-06T10:45:38.279Z,17.60
2019-02-06T10:48:05.243Z,17.33
2019-02-06T10:50:34.538Z,16.53
2019-02-06T10:53:01.564Z,16.50
2019-02-06T10:55:28.798Z,17.20
2019-02-06T10:57:55.655Z,17.67
2019-02-06T11:01:05.162Z,16.50
2019-02-06T11:03:31.985Z,16.33
2019-02-06T11:05:58.823Z,15.60
2019-02-06T11:08:25.617Z,16.20
2019-02-06T11:10:52.966Z,15.30
2019-02-06T11:13:19.708Z,14.77
2019-02-06T11:15:46.951Z,13.83
2019-02-06T11:18:13.771Z,14.90
2019-02-06T11:21:22.177Z,14.37
2019-02-06T11:23:48.891Z,13.87
2019-02-06T11:26:15.641Z,13.20
2019-02-06T11:28:42.435Z,12.67
2019-02-06T11:31:09.586Z,12.87
2019-02-06T11:33:36.336Z,12.17
2019-02-06T11:36:03.391Z,12.70
2019-02-06T11:38:32.033Z,13.83
2019-02-06T11:40:58.772Z,11.73
2019-02-06T11:43:25.906Z,11.87
2019-02-06T11:45:52.761Z,10.93
2019-02-06T11:48:19.503Z,12.07
2019-02-06T11:50:46.410Z,12.40
2019-02-06T11:53:32.760Z,11.30
2019-02-06T11:55:59.652Z,12.17
2019-02-06T11:58:26.500Z,11.43
2019-02-06T12:01:13.053Z,11.30
2019-02-06T12:03:39.963Z,11.07
2019-02-06T12:06:08.715Z,11.50
2019-02-06T12:08:35.583Z,11.03
2019-02-06T12:11:23.879Z,11.80
2019-02-06T12:13:53.523Z,11.23
2019-02-06T12:16:20.293Z,11.77
2019-02-06T12:18:48.993Z,12.70
2019-02-06T12:21:17.884Z,11.87
2019-02-06T12:23:44.498Z,10.13
2019-02-06T12:26:11.357Z,10.47
2019-02-06T12:28:38.339Z,10.73
2019-02-06T12:31:05.267Z,11.00
2019-02-06T12:33:32.054Z,11.43
2019-02-06T12:35:58.976Z,11.17
2019-02-06T12:38:28.051Z,10.40
2019-02-06T12:40:54.988Z,10.17
2019-02-06T12:43:21.803Z,10.80
2019-02-06T12:45:48.670Z,10.43
2019-02-06T12:48:15.413Z,9.77
2019-02-06T12:50:42.384Z,9.30
2019-02-06T12:53:09.236Z,9.50
2019-02-06T12:55:36.900Z,9.67
2019-02-06T12:58:45.113Z,8.70
2019-02-06T13:01:11.840Z,9.17
2019-02-06T13:03:38.715Z,8.43
2019-02-06T13:06:05.794Z,8.77
2019-02-06T13:08:32.827Z,8.40
2019-02-06T13:10:59.765Z,9.17
2019-02-06T13:13:26.845Z,8.83
2019-02-06T13:15:53.684Z,8.87
2019-02-06T13:18:20.551Z,9.27
2019-02-06T13:20:47.550Z,9.53
2019-02-06T13:23:14.490Z,9.27
2019-02-06T13:25:41.362Z,9.50
2019-02-06T13:28:08.436Z,10.00
2019-02-06T13:30:35.523Z,10.00
2019-02-06T13:33:02.354Z,11.27
2019-02-06T13:35:29.593Z,10.43
2019-02-06T13:37:56.732Z,10.80
2019-02-06T13:40:24.938Z,10.00
2019-02-06T13:42:51.795Z,11.40
2019-02-06T13:45:21.036Z,11.00
2019-02-06T13:47:48.067Z,11.43
2019-02-06T13:50:22.182Z,12.33
2019-02-06T13:52:43.886Z,12.00
2019-02-06T13:55:11.005Z,11.87
2019-02-06T13:57:38.031Z,11.57
2019-02-06T14:00:29.583Z,11.57
2019-02-06T14:02:57.122Z,11.73
2019-02-06T14:05:25.763Z,12.87
2019-02-06T14:07:55.246Z,11.93
2019-02-06T14:12:57.366Z,11.97
2019-02-06T14:16:05.772Z,11.43
2019-02-06T14:18:45.368Z,11.93
2019-02-06T14:21:12.152Z,10.77
2019-02-06T14:24:18.160Z,11.97
2019-02-06T14:27:09.521Z,11.37
2019-02-06T14:30:06.643Z,11.73
2019-02-06T14:32:56.705Z,12.03
2019-02-06T14:35:29.520Z,12.27
2019-02-06T14:38:24.656Z,11.53
2019-02-06T14:41:30.666Z,11.37
2019-02-06T14:44:36.952Z,11.47
2019-02-06T14:47:43.247Z,10.97
2019-02-06T14:50:49.595Z,9.90
2019-02-06T14:53:55.678Z,10.67
2019-02-06T14:56:31.087Z,10.13
2019-02-06T14:59:26.105Z,10.37
2019-02-06T15:02:31.994Z,9.87
2019-02-06T15:05:23.299Z,10.37
2019-02-06T15:08:29.356Z,10.03
2019-02-06T15:11:22.344Z,10.57
2019-02-06T15:14:27.841Z,10.30
2019-02-06T15:17:21.737Z,9.93
2019-02-06T15:20:27.678Z,10.80
2019-02-06T15:23:17.494Z,11.13
2019-02-06T15:26:23.370Z,10.90
2019-02-06T15:29:29.364Z,10.43
2019-02-06T15:32:35.221Z,10.90
2019-02-06T15:35:41.210Z,11.00
2019-02-06T15:38:19.921Z,10.77
2019-02-06T15:41:31.093Z,11.90
2019-02-06T15:44:34.447Z,11.00
2019-02-06T15:47:42.335Z,11.50
2019-02-06T15:50:41.887Z,12.37
2019-02-06T15:53:48.461Z,11.27
2019-02-06T15:56:55.729Z,11.93
2019-02-06T16:00:01.749Z,11.87
2019-02-06T16:02:51.907Z,11.63
2019-02-06T16:06:18.036Z,12.43
2019-02-06T16:09:24.634Z,13.17
2019-02-06T16:12:30.652Z,12.93
2019-02-06T16:15:21.077Z,12.07
2019-02-06T16:18:12.672Z,12.57
2019-02-06T16:20:52.409Z,12.10
2019-02-06T16:23:51.236Z,13.30
2019-02-06T16:26:37.688Z,13.37
2019-02-06T16:29:43.725Z,12.53
2019-02-06T16:32:33.559Z,13.63
2019-02-06T16:35:39.887Z,13.03
2019-02-06T16:38:45.764Z,13.77
2019-02-06T16:41:38.691Z,13.70
2019-02-06T16:44:44.565Z,13.57
2019-02-06T16:47:45.037Z,13.67
2019-02-06T16:50:45.813Z,13.63
2019-02-06T16:53:36.056Z,14.53
2019-02-06T16:56:41.937Z,13.87
2019-02-06T16:59:36.366Z,14.10
2019-02-06T17:02:42.381Z,14.10
2019-02-06T17:05:48.653Z,13.50
2019-02-06T17:08:43.382Z,13.90
2019-02-06T17:11:49.387Z,13.27
2019-02-06T17:14:55.266Z,13.77
2019-02-06T17:17:29.519Z,13.63
2019-02-06T17:20:20.526Z,13.00
2019-02-06T17:23:26.817Z,13.30
2019-02-06T17:26:32.702Z,13.27
2019-02-06T17:29:38.674Z,12.80
2019-02-06T17:32:44.551Z,12.53
2019-02-06T17:35:38.004Z,12.57
2019-02-06T17:38:37.660Z,12.60
2019-02-06T17:41:26.761Z,13.03
2019-02-06T17:44:32.888Z,12.83
2019-02-06T17:47:24.024Z,13.27
2019-02-06T17:50:30.273Z,12.97
2019-02-06T17:53:29.194Z,12.87
2019-02-06T17:55:56.549Z,13.10
2019-02-06T17:58:24.081Z,12.93
2019-02-06T18:01:30.518Z,12.50
2019-02-06T18:04:19.061Z,13.20
2019-02-06T18:07:27.108Z,12.67
2019-02-06T18:09:53.990Z,11.93
2019-02-06T18:12:26.260Z,12.13
2019-02-06T18:14:49.626Z,12.97
2019-02-06T18:17:16.917Z,11.90
2019-02-06T18:19:43.671Z,12.63
2019-02-06T18:22:10.593Z,11.77
2019-02-06T18:24:37.520Z,12.47
2019-02-06T18:27:04.872Z,12.50
2019-02-06T18:29:31.787Z,11.77
2019-02-06T18:32:00.241Z,12.00
2019-02-06T18:34:27.090Z,12.33
2019-02-06T18:36:56.314Z,11.67
2019-02-06T18:39:23.439Z,11.23
2019-02-06T18:41:50.509Z,12.17
2019-02-06T18:44:17.686Z,11.73
2019-02-06T18:46:46.444Z,12.17
2019-02-06T18:49:13.186Z,12.10
2019-02-06T18:51:41.151Z,11.70
2019-02-06T18:54:29.717Z,12.27
2019-02-06T18:56:56.541Z,12.47
2019-02-06T18:59:23.330Z,11.80
2019-02-06T19:01:50.103Z,13.03
2019-02-06T19:04:19.126Z,12.27
2019-02-06T19:06:46.782Z,12.40
2019-02-06T19:09:14.837Z,12.20
2019-02-06T19:11:41.750Z,12.67
2019-02-06T19:14:08.659Z,12.73
2019-02-06T19:16:37.343Z,13.07
2019-02-06T19:19:04.771Z,13.27
2019-02-06T19:21:31.531Z,12.73
2019-02-06T19:23:58.891Z,12.77
2019-02-06T19:26:26.262Z,12.60
2019-02-06T19:28:53.600Z,13.33
2019-02-06T19:31:20.477Z,12.70
2019-02-06T19:33:47.636Z,14.33
2019-02-06T19:36:14.844Z,13.47
2019-02-06T19:38:41.894Z,14.17
2019-02-06T19:41:09.108Z,12.33
2019-02-06T19:43:37.077Z,13.57
2019-02-06T19:46:03.984Z,14.20
2019-02-06T19:48:55.888Z,13.60
2019-02-06T19:51:23.046Z,12.53
2019-02-06T19:53:50.170Z,13.30
2019-02-06T19:56:17.244Z,13.30
2019-02-06T19:58:44.058Z,12.67
2019-02-06T20:01:10.902Z,13.33
2019-02-06T20:03:37.897Z,13.37
2019-02-06T20:06:05.740Z,12.70
2019-02-06T20:08:33.894Z,13.80
2019-02-06T20:11:00.881Z,12.70
2019-02-06T20:13:28.468Z,14.07
2019-02-06T20:15:55.766Z,14.10
2019-02-06T20:18:22.707Z,14.33
2019-02-06T20:20:49.453Z,14.30
2019-02-06T20:23:16.551Z,13.63
2019-02-06T20:25:43.700Z,14.23
2019-02-06T20:28:10.592Z,15.17
2019-02-06T20:30:59.122Z,13.70
2019-02-06T20:33:25.940Z,14.17
2019-02-06T20:35:52.672Z,14.67
2019-02-06T20:38:19.623Z,14.10
2019-02-06T20:40:46.511Z,14.40
2019-02-06T20:43:21.775Z,13.17
2019-02-06T20:45:42.112Z,15.40
2019-02-06T20:51:00.381Z,13.87
2019-02-06T20:53:27.420Z,15.03
2019-02-06T20:55:54.178Z,13.30
2019-02-06T20:58:21.147Z,14.57
2019-02-06T21:00:48.553Z,14.63
2019-02-06T21:03:15.400Z,14.10
2019-02-06T21:05:44.531Z,14.37
2019-02-06T21:08:12.184Z,14.33
2019-02-06T21:10:39.396Z,13.93
2019-02-06T21:13:06.228Z,15.10
2019-02-06T21:15:33.165Z,14.63
2019-02-06T21:18:00.048Z,16.00
2019-02-06T21:20:27.328Z,17.37
2019-02-06T21:22:54.253Z,16.93
2019-02-06T21:25:21.172Z,16.30
2019-02-06T21:27:49.196Z,16.33
2019-02-06T21:30:35.765Z,16.07
2019-02-06T21:33:02.742Z,15.20
2019-02-06T21:35:30.041Z,15.00
2019-02-06T21:37:57.212Z,15.10
2019-02-06T21:40:25.982Z,15.03
2019-02-06T21:42:52.972Z,14.07
2019-02-06T21:45:19.827Z,13.37
2019-02-06T21:47:47.136Z,13.30
2019-02-06T21:50:21.546Z,13.90
2019-02-06T21:52:48.407Z,12.57
2019-02-06T21:55:16.081Z,13.03
2019-02-06T22:00:37.150Z,13.50
2019-02-06T22:03:25.547Z,13.00
2019-02-06T22:05:52.428Z,12.53
2019-02-06T22:08:19.656Z,12.73
2019-02-06T22:10:47.691Z,12.53
2019-02-06T22:13:14.610Z,12.63
2019-02-06T22:15:41.555Z,13.10
2019-02-06T22:18:08.948Z,11.93
2019-02-06T22:20:35.808Z,12.57
2019-02-06T22:23:03.036Z,12.50
2019-02-06T22:25:30.684Z,12.70
2019-02-06T22:27:57.496Z,12.23
2019-02-06T22:30:25.950Z,13.13
2019-02-06T22:32:52.806Z,12.07
2019-02-06T22:35:21.896Z,11.83
2019-02-06T22:37:48.739Z,11.67
2019-02-06T22:40:17.263Z,12.77
2019-02-06T22:42:44.184Z,11.30
2019-02-06T22:45:14.084Z,11.90
2019-02-06T22:47:40.939Z,12.53
2019-02-06T22:50:09.629Z,12.30
2019-02-06T22:52:39.024Z,12.77
2019-02-06T22:55:06.973Z,12.70
2019-02-06T22:57:33.845Z,11.93
2019-02-06T23:00:00.895Z,11.47
2019-02-06T23:02:27.761Z,12.40
2019-02-06T23:04:54.638Z,11.77
2019-02-06T23:07:21.649Z,12.47
2019-02-06T23:09:50.297Z,11.53
2019-02-06T23:12:17.292Z,11.47
2019-02-06T23:14:44.228Z,11.37
2019-02-06T23:17:11.097Z,11.00
2019-02-06T23:19:38.330Z,10.93
2019-02-06T23:22:05.073Z,10.40
2019-02-06T23:24:31.810Z,12.07
2019-02-06T23:26:58.984Z,10.87
2019-02-06T23:29:25.901Z,11.43
2019-02-06T23:31:52.987Z,11.57
2019-02-06T23:34:19.797Z,11.50
2019-02-06T23:36:46.591Z,11.10
2019-02-06T23:39:33.082Z,10.80
2019-02-06T23:41:59.945Z,10.83
2019-02-06T23:44:28.881Z,10.67
2019-02-06T23:46:56.259Z,9.93
2019-02-06T23:49:24.368Z,9.97
2019-02-06T23:51:51.237Z,10.10
2019-02-06T23:54:18.210Z,11.03
2019-02-06T23:56:45.415Z,10.00
2019-02-06T23:59:13.058Z,10.47
